createdAt,value
2017-03-02T00:00:38.389Z,7.59
2017-03-02T00:01:38.809Z,7.6
2017-03-02T00:02:38.843Z,7.63
2017-03-02T00:03:38.493Z,7.55
2017-03-02T00:04:38.909Z,7.59
2017-03-02T00:05:38.561Z,7.67
2017-03-02T00:06:38.589Z,7.63
2017-03-02T00:07:38.626Z,7.63
2017-03-02T00:08:39.038Z,7.59
2017-03-02T00:09:38.722Z,7.6
2017-03-02T00:10:38.724Z,7.62
2017-03-02T00:11:39.518Z,7.59
2017-03-02T00:12:39.562Z,7.63
2017-03-02T00:13:39.210Z,7.6
2017-03-02T00:14:39.248Z,7.58
2017-03-02T00:15:39.657Z,7.56
2017-03-02T00:16:39.309Z,7.53
2017-03-02T00:17:38.951Z,7.62
2017-03-02T00:18:39.785Z,7.58
2017-03-02T00:19:39.405Z,7.6
2017-03-02T00:20:39.053Z,7.52
2017-03-02T00:21:39.500Z,7.5
2017-03-02T00:22:39.136Z,7.47
2017-03-02T00:23:39.537Z,7.5
2017-03-02T00:24:39.960Z,7.52
2017-03-02T00:25:39.610Z,7.55
2017-03-02T00:26:39.656Z,7.5
2017-03-02T00:27:39.290Z,7.47
2017-03-02T00:28:39.729Z,7.4
2017-03-02T00:29:39.362Z,7.45
2017-03-02T00:30:39.789Z,7.52
2017-03-02T00:31:39.816Z,7.47
2017-03-02T00:32:39.859Z,7.41
2017-03-02T00:33:40.267Z,7.42
2017-03-02T00:34:39.935Z,7.42
2017-03-02T00:35:39.951Z,7.44
2017-03-02T00:36:39.993Z,7.45
2017-03-02T00:37:39.646Z,7.45
2017-03-02T00:38:40.060Z,7.45
2017-03-02T00:39:40.088Z,7.53
2017-03-02T00:40:40.122Z,7.5
2017-03-02T00:41:40.159Z,7.47
2017-03-02T00:42:40.212Z,7.49
2017-03-02T00:43:40.225Z,7.45
2017-03-02T00:44:40.258Z,7.5
2017-03-02T00:45:39.903Z,7.5
2017-03-02T00:46:39.939Z,7.42
2017-03-02T00:47:39.989Z,7.52
2017-03-02T00:48:40.406Z,7.47
2017-03-02T00:49:40.040Z,7.41
2017-03-02T00:50:40.463Z,7.41
2017-03-02T00:51:40.502Z,7.45
2017-03-02T00:52:40.153Z,7.42
2017-03-02T00:53:40.566Z,7.44
2017-03-02T00:54:40.601Z,7.44
2017-03-02T00:55:40.654Z,7.4
2017-03-02T00:56:41.049Z,7.38
2017-03-02T00:57:40.706Z,7.4
2017-03-02T00:58:40.738Z,7.45
2017-03-02T00:59:40.771Z,7.4
2017-03-02T01:00:40.802Z,7.4
2017-03-02T01:01:40.834Z,7.4
2017-03-02T01:02:40.481Z,7.41
2017-03-02T01:03:40.528Z,7.38
2017-03-02T01:04:40.952Z,7.35
2017-03-02T01:05:40.978Z,7.41
2017-03-02T01:06:40.633Z,7.37
2017-03-02T01:07:40.662Z,7.4
2017-03-02T01:08:40.709Z,7.42
2017-03-02T01:09:40.721Z,7.34
2017-03-02T01:10:41.529Z,7.41
2017-03-02T01:11:41.188Z,7.38
2017-03-02T01:12:41.209Z,7.4
2017-03-02T01:13:41.247Z,7.41
2017-03-02T01:14:41.298Z,7.35
2017-03-02T01:15:41.318Z,7.38
2017-03-02T01:16:41.344Z,7.24
2017-03-02T01:17:41.415Z,7.42
2017-03-02T01:18:41.023Z,7.26
2017-03-02T01:19:41.450Z,7.29
2017-03-02T01:20:41.480Z,7.37
2017-03-02T01:21:41.522Z,7.29
2017-03-02T01:22:41.964Z,7.27
2017-03-02T01:23:41.602Z,7.27
2017-03-02T01:24:41.612Z,7.24
2017-03-02T01:25:41.653Z,7.24
2017-03-02T01:26:41.310Z,7.32
2017-03-02T01:27:41.334Z,7.27
2017-03-02T01:28:41.744Z,7.24
2017-03-02T01:29:41.401Z,7.2
2017-03-02T01:30:41.429Z,7.29
2017-03-02T01:31:41.492Z,7.22
2017-03-02T01:32:41.899Z,7.19
2017-03-02T01:33:41.964Z,7.17
2017-03-02T01:34:42.350Z,7.22
2017-03-02T01:35:42.400Z,7.27
2017-03-02T01:36:42.023Z,7.27
2017-03-02T01:37:42.064Z,7.17
2017-03-02T01:38:42.091Z,7.24
2017-03-02T01:39:42.128Z,7.29
2017-03-02T01:40:42.163Z,7.26
2017-03-02T01:41:42.572Z,7.27
2017-03-02T01:42:42.221Z,7.27
2017-03-02T01:43:42.641Z,7.31
2017-03-02T01:44:41.937Z,7.34
2017-03-02T01:45:41.942Z,7.26
2017-03-02T01:46:41.984Z,7.31
2017-03-02T01:47:42.812Z,7.31
2017-03-02T01:48:42.042Z,7.27
2017-03-02T01:49:42.079Z,7.34
2017-03-02T01:50:42.109Z,7.37
2017-03-02T01:51:42.530Z,7.29
2017-03-02T01:52:42.561Z,7.27
2017-03-02T01:53:42.978Z,7.27
2017-03-02T01:54:42.633Z,7.31
2017-03-02T01:55:43.048Z,7.29
2017-03-02T01:56:42.313Z,7.31
2017-03-02T01:57:42.729Z,7.16
2017-03-02T01:58:42.771Z,7.32
2017-03-02T01:59:43.182Z,7.19
2017-03-02T02:00:42.459Z,7.29
2017-03-02T02:01:43.247Z,7.17
2017-03-02T02:02:42.920Z,7.23
2017-03-02T02:03:42.565Z,7.23
2017-03-02T02:04:42.595Z,7.22
2017-03-02T02:05:43.019Z,7.23
2017-03-02T02:06:43.048Z,7.22
2017-03-02T02:07:43.087Z,7.22
2017-03-02T02:08:42.738Z,7.2
2017-03-02T02:09:43.133Z,7.23
2017-03-02T02:10:42.785Z,7.09
2017-03-02T02:11:43.210Z,7.04
2017-03-02T02:12:42.849Z,7.08
2017-03-02T02:13:43.280Z,7.2
2017-03-02T02:14:42.928Z,7.2
2017-03-02T02:15:43.335Z,7.08
2017-03-02T02:16:43.385Z,7.15
2017-03-02T02:17:43.419Z,7.24
2017-03-02T02:18:43.828Z,7.26
2017-03-02T02:19:43.862Z,7.13
2017-03-02T02:20:43.165Z,7.23
2017-03-02T02:21:43.934Z,7.2
2017-03-02T02:22:43.209Z,7.2
2017-03-02T02:23:43.611Z,7.23
2017-03-02T02:24:43.271Z,7.23
2017-03-02T02:25:43.674Z,7.17
2017-03-02T02:26:43.327Z,7.27
2017-03-02T02:27:43.747Z,7.29
2017-03-02T02:28:43.396Z,7.13
2017-03-02T02:29:43.828Z,7.23
2017-03-02T02:30:43.463Z,7.19
2017-03-02T02:31:43.890Z,7.26
2017-03-02T02:32:44.324Z,7.19
2017-03-02T02:33:43.964Z,7.23
2017-03-02T02:34:44.377Z,7.24
2017-03-02T02:35:43.645Z,7.2
2017-03-02T02:36:44.068Z,7.16
2017-03-02T02:37:44.468Z,7.16
2017-03-02T02:38:44.117Z,7.34
2017-03-02T02:39:44.161Z,7.19
2017-03-02T02:40:43.825Z,7.26
2017-03-02T02:41:43.843Z,7.2
2017-03-02T02:42:43.866Z,7.24
2017-03-02T02:43:43.899Z,7.17
2017-03-02T02:44:44.323Z,7.29
2017-03-02T02:45:44.361Z,7.24
2017-03-02T02:46:44.397Z,7.2
2017-03-02T02:47:44.805Z,7.34
2017-03-02T02:48:44.465Z,7.26
2017-03-02T02:49:44.895Z,7.34
2017-03-02T02:50:44.534Z,7.34
2017-03-02T02:51:44.573Z,7.32
2017-03-02T02:52:44.223Z,7.27
2017-03-02T02:53:44.628Z,7.26
2017-03-02T02:54:44.271Z,7.41
2017-03-02T02:55:44.689Z,7.4
2017-03-02T02:56:44.358Z,7.4
2017-03-02T02:57:44.382Z,7.4
2017-03-02T02:58:45.191Z,7.4
2017-03-02T02:59:44.832Z,7.49
2017-03-02T03:00:45.251Z,7.44
2017-03-02T03:01:44.897Z,7.41
2017-03-02T03:02:44.556Z,7.38
2017-03-02T03:03:44.967Z,7.45
2017-03-02T03:04:45.003Z,7.37
2017-03-02T03:05:44.662Z,7.45
2017-03-02T03:06:45.064Z,7.5
2017-03-02T03:07:45.126Z,7.55
2017-03-02T03:08:45.138Z,7.56
2017-03-02T03:09:45.191Z,7.49
2017-03-02T03:10:45.222Z,7.5
2017-03-02T03:11:45.244Z,7.53
2017-03-02T03:12:45.669Z,7.58
2017-03-02T03:13:44.945Z,7.56
2017-03-02T03:14:45.343Z,7.55
2017-03-02T03:15:44.987Z,7.55
2017-03-02T03:16:45.404Z,7.47
2017-03-02T03:17:45.068Z,7.44
2017-03-02T03:18:45.858Z,7.5
2017-03-02T03:19:45.159Z,7.47
2017-03-02T03:20:45.541Z,7.45
2017-03-02T03:21:46.011Z,7.55
2017-03-02T03:22:45.610Z,7.55
2017-03-02T03:23:45.258Z,7.62
2017-03-02T03:24:46.083Z,7.52
2017-03-02T03:25:45.342Z,7.6
2017-03-02T03:26:45.370Z,7.62
2017-03-02T03:27:45.395Z,7.66
2017-03-02T03:28:45.436Z,7.56
2017-03-02T03:29:45.862Z,7.62
2017-03-02T03:30:45.526Z,7.74
2017-03-02T03:31:45.937Z,7.67
2017-03-02T03:32:45.577Z,7.74
2017-03-02T03:33:45.986Z,7.71
2017-03-02T03:34:46.403Z,7.78
2017-03-02T03:35:45.687Z,7.75
2017-03-02T03:36:46.110Z,7.81
2017-03-02T03:37:46.511Z,7.84
2017-03-02T03:38:45.770Z,7.77
2017-03-02T03:39:46.190Z,7.77
2017-03-02T03:40:46.615Z,7.9
2017-03-02T03:41:46.302Z,7.89
2017-03-02T03:42:45.904Z,7.87
2017-03-02T03:43:45.976Z,8
2017-03-02T03:44:46.746Z,7.97
2017-03-02T03:45:46.789Z,8
2017-03-02T03:46:46.429Z,7.96
2017-03-02T03:47:46.480Z,7.97
2017-03-02T03:48:46.506Z,8.07
2017-03-02T03:49:46.148Z,7.99
2017-03-02T03:50:46.177Z,8.02
2017-03-02T03:51:46.598Z,8.11
2017-03-02T03:52:46.666Z,8.17
2017-03-02T03:53:46.670Z,8.08
2017-03-02T03:54:46.716Z,8.1
2017-03-02T03:55:46.365Z,8.14
2017-03-02T03:56:46.773Z,8.22
2017-03-02T03:57:46.816Z,8.2
2017-03-02T03:58:46.839Z,8.21
2017-03-02T03:59:46.488Z,8.11
2017-03-02T04:00:46.911Z,8.11
2017-03-02T04:01:46.565Z,8.17
2017-03-02T04:02:46.977Z,8.18
2017-03-02T04:03:46.658Z,8.17
2017-03-02T04:04:46.667Z,8.11
2017-03-02T04:05:47.462Z,8.21
2017-03-02T04:06:46.728Z,8.21
2017-03-02T04:07:47.145Z,8.18
2017-03-02T04:08:47.199Z,8.25
2017-03-02T04:09:46.829Z,8.22
2017-03-02T04:10:46.870Z,8.26
2017-03-02T04:11:46.902Z,8.28
2017-03-02T04:12:46.964Z,8.29
2017-03-02T04:13:47.363Z,8.33
2017-03-02T04:14:47.001Z,8.29
2017-03-02T04:15:47.820Z,8.33
2017-03-02T04:16:47.070Z,8.36
2017-03-02T04:17:47.913Z,8.42
2017-03-02T04:18:47.924Z,8.39
2017-03-02T04:19:47.566Z,8.44
2017-03-02T04:20:47.978Z,8.47
2017-03-02T04:21:47.639Z,8.35
2017-03-02T04:22:48.049Z,8.5
2017-03-02T04:23:47.314Z,8.55
2017-03-02T04:24:48.121Z,8.63
2017-03-02T04:25:47.765Z,8.62
2017-03-02T04:26:47.412Z,8.63
2017-03-02T04:27:47.445Z,8.63
2017-03-02T04:28:47.483Z,8.6
2017-03-02T04:29:47.532Z,8.62
2017-03-02T04:30:47.951Z,8.63
2017-03-02T04:31:47.973Z,8.69
2017-03-02T04:32:47.642Z,8.69
2017-03-02T04:33:48.039Z,8.63
2017-03-02T04:34:47.915Z,8.73
2017-03-02T04:35:47.729Z,8.71
2017-03-02T04:36:48.148Z,8.84
2017-03-02T04:37:48.193Z,8.71
2017-03-02T04:38:47.838Z,8.72
2017-03-02T04:39:47.865Z,8.75
2017-03-02T04:40:47.893Z,8.76
2017-03-02T04:41:48.321Z,8.78
2017-03-02T04:42:47.994Z,8.86
2017-03-02T04:43:48.406Z,8.81
2017-03-02T04:44:48.055Z,8.84
2017-03-02T04:45:48.464Z,8.83
2017-03-02T04:46:48.104Z,8.83
2017-03-02T04:47:48.547Z,8.79
2017-03-02T04:48:48.946Z,8.88
2017-03-02T04:49:48.604Z,8.76
2017-03-02T04:50:49.011Z,8.88
2017-03-02T04:51:49.050Z,8.79
2017-03-02T04:52:48.694Z,8.81
2017-03-02T04:53:48.731Z,8.81
2017-03-02T04:54:48.382Z,8.84
2017-03-02T04:55:49.192Z,8.88
2017-03-02T04:56:48.839Z,8.72
2017-03-02T04:57:49.090Z,8.81
2017-03-02T04:58:49.288Z,8.84
2017-03-02T04:59:48.562Z,8.72
2017-03-02T05:00:48.596Z,8.81
2017-03-02T05:01:48.620Z,8.72
2017-03-02T05:02:49.055Z,8.84
2017-03-02T05:03:49.078Z,8.73
2017-03-02T05:04:48.728Z,8.68
2017-03-02T05:05:48.766Z,8.76
2017-03-02T05:06:49.188Z,8.73
2017-03-02T05:07:49.213Z,8.68
2017-03-02T05:08:49.261Z,8.69
2017-03-02T05:09:49.672Z,8.71
2017-03-02T05:10:49.326Z,8.69
2017-03-02T05:11:48.984Z,8.73
2017-03-02T05:12:49.002Z,8.65
2017-03-02T05:13:49.435Z,8.68
2017-03-02T05:14:49.080Z,8.66
2017-03-02T05:15:49.123Z,8.63
2017-03-02T05:16:49.527Z,8.63
2017-03-02T05:17:49.573Z,8.75
2017-03-02T05:18:49.610Z,8.54
2017-03-02T05:19:49.248Z,8.57
2017-03-02T05:20:49.278Z,8.66
2017-03-02T05:21:49.699Z,8.6
2017-03-02T05:22:50.121Z,8.66
2017-03-02T05:23:49.782Z,8.63
2017-03-02T05:24:49.808Z,8.51
2017-03-02T05:25:49.865Z,8.6
2017-03-02T05:26:49.909Z,8.57
2017-03-02T05:27:49.906Z,8.54
2017-03-02T05:28:50.324Z,8.65
2017-03-02T05:29:49.590Z,8.63
2017-03-02T05:30:49.621Z,8.62
2017-03-02T05:31:49.669Z,8.54
2017-03-02T05:32:50.083Z,8.63
2017-03-02T05:33:50.122Z,8.6
2017-03-02T05:34:49.767Z,8.65
2017-03-02T05:35:50.189Z,8.62
2017-03-02T05:36:49.831Z,8.62
2017-03-02T05:37:50.268Z,8.54
2017-03-02T05:38:50.677Z,8.57
2017-03-02T05:39:50.314Z,8.47
2017-03-02T05:40:50.750Z,8.62
2017-03-02T05:41:50.394Z,8.63
2017-03-02T05:42:50.040Z,8.54
2017-03-02T05:43:50.840Z,8.57
2017-03-02T05:44:50.105Z,8.55
2017-03-02T05:45:50.530Z,8.65
2017-03-02T05:46:50.174Z,8.62
2017-03-02T05:47:50.214Z,8.62
2017-03-02T05:48:50.629Z,8.63
2017-03-02T05:49:50.664Z,8.62
2017-03-02T05:50:50.696Z,8.68
2017-03-02T05:51:50.743Z,8.68
2017-03-02T05:52:50.776Z,8.68
2017-03-02T05:53:51.188Z,8.63
2017-03-02T05:54:50.447Z,8.69
2017-03-02T05:55:50.873Z,8.65
2017-03-02T05:56:50.529Z,8.68
2017-03-02T05:57:50.941Z,8.71
2017-03-02T05:58:50.608Z,8.68
2017-03-02T05:59:51.010Z,8.68
2017-03-02T06:00:51.433Z,8.73
2017-03-02T06:01:50.714Z,8.73
2017-03-02T06:02:50.728Z,8.73
2017-03-02T06:03:51.147Z,8.69
2017-03-02T06:04:51.564Z,8.72
2017-03-02T06:05:51.228Z,8.75
2017-03-02T06:06:51.640Z,8.69
2017-03-02T06:07:50.923Z,8.83
2017-03-02T06:08:50.932Z,8.86
2017-03-02T06:09:50.983Z,8.76
2017-03-02T06:10:51.008Z,8.84
2017-03-02T06:11:51.432Z,8.83
2017-03-02T06:12:51.072Z,8.76
2017-03-02T06:13:51.154Z,8.86
2017-03-02T06:14:51.532Z,8.87
2017-03-02T06:15:51.183Z,8.9
2017-03-02T06:16:52.021Z,8.88
2017-03-02T06:17:51.646Z,8.9
2017-03-02T06:18:51.671Z,8.87
2017-03-02T06:19:51.328Z,8.86
2017-03-02T06:20:51.737Z,8.87
2017-03-02T06:21:51.397Z,8.83
2017-03-02T06:22:51.807Z,8.93
2017-03-02T06:23:51.451Z,8.93
2017-03-02T06:24:51.491Z,8.93
2017-03-02T06:25:51.530Z,8.94
2017-03-02T06:26:51.950Z,8.9
2017-03-02T06:27:52.372Z,8.99
2017-03-02T06:28:51.632Z,8.93
2017-03-02T06:29:51.678Z,9.01
2017-03-02T06:30:52.472Z,8.99
2017-03-02T06:31:51.740Z,9.06
2017-03-02T06:32:51.768Z,9.06
2017-03-02T06:33:52.213Z,8.97
2017-03-02T06:34:51.852Z,9.04
2017-03-02T06:35:52.646Z,9.09
2017-03-02T06:36:51.909Z,9.05
2017-03-02T06:37:51.946Z,9.05
2017-03-02T06:38:52.788Z,9.12
2017-03-02T06:39:52.395Z,9.13
2017-03-02T06:40:52.431Z,9.2
2017-03-02T06:41:52.090Z,9.31
2017-03-02T06:42:52.518Z,9.23
2017-03-02T06:43:52.550Z,9.32
2017-03-02T06:44:52.193Z,9.32
2017-03-02T06:45:52.606Z,9.42
2017-03-02T06:46:52.641Z,9.43
2017-03-02T06:47:53.059Z,9.49
2017-03-02T06:48:52.722Z,9.48
2017-03-02T06:49:53.130Z,9.6
2017-03-02T06:50:52.795Z,9.57
2017-03-02T06:51:52.446Z,9.58
2017-03-02T06:52:52.469Z,9.53
2017-03-02T06:53:53.276Z,9.53
2017-03-02T06:54:52.936Z,9.66
2017-03-02T06:55:52.580Z,9.71
2017-03-02T06:56:52.619Z,9.78
2017-03-02T06:57:52.646Z,9.79
2017-03-02T06:58:52.696Z,9.81
2017-03-02T06:59:53.118Z,9.82
2017-03-02T07:00:53.140Z,9.86
2017-03-02T07:01:53.199Z,9.78
2017-03-02T07:02:53.228Z,9.89
2017-03-02T07:03:52.862Z,9.86
2017-03-02T07:04:53.673Z,9.83
2017-03-02T07:05:53.714Z,9.93
2017-03-02T07:06:53.755Z,9.93
2017-03-02T07:07:53.392Z,9.99
2017-03-02T07:08:53.824Z,10.07
2017-03-02T07:09:53.487Z,9.94
2017-03-02T07:10:53.523Z,10.04
2017-03-02T07:11:53.920Z,10.04
2017-03-02T07:12:54.570Z,10.04
2017-03-02T07:13:53.218Z,9.96
2017-03-02T07:14:53.638Z,10.01
2017-03-02T07:15:53.293Z,10
2017-03-02T07:16:53.714Z,10.01
2017-03-02T07:17:53.362Z,10.04
2017-03-02T07:18:53.791Z,10.15
2017-03-02T07:19:53.821Z,10.34
2017-03-02T07:20:53.857Z,10.7
2017-03-02T07:21:53.520Z,10.99
2017-03-02T07:22:53.549Z,11.24
2017-03-02T07:23:53.962Z,11.43
2017-03-02T07:24:53.629Z,11.39
2017-03-02T07:25:54.035Z,11.47
2017-03-02T07:26:53.697Z,11.38
2017-03-02T07:27:54.127Z,11.29
2017-03-02T07:28:53.763Z,11.47
2017-03-02T07:29:54.182Z,11.29
2017-03-02T07:30:54.272Z,11.35
2017-03-02T07:31:54.271Z,11.17
2017-03-02T07:32:54.297Z,11.07
2017-03-02T07:33:54.719Z,11.1
2017-03-02T07:34:54.373Z,11.06
2017-03-02T07:35:54.187Z,11.07
2017-03-02T07:36:54.061Z,10.99
2017-03-02T07:37:54.481Z,10.94
2017-03-02T07:38:55.038Z,10.98
2017-03-02T07:39:54.569Z,10.91
2017-03-02T07:40:54.223Z,10.92
2017-03-02T07:41:54.636Z,10.99
2017-03-02T07:42:54.293Z,11.02
2017-03-02T07:43:54.702Z,10.81
2017-03-02T07:44:54.739Z,10.88
2017-03-02T07:45:54.412Z,10.66
2017-03-02T07:46:54.425Z,10.28
2017-03-02T07:47:54.863Z,9.97
2017-03-02T07:48:54.881Z,9.68
2017-03-02T07:49:54.533Z,9.38
2017-03-02T07:50:55.341Z,9.18
2017-03-02T07:51:54.606Z,9.04
2017-03-02T07:52:55.027Z,8.99
2017-03-02T07:53:55.483Z,8.97
2017-03-02T07:54:55.505Z,8.88
2017-03-02T07:55:54.764Z,8.86
2017-03-02T07:56:54.790Z,8.94
2017-03-02T07:57:55.216Z,8.94
2017-03-02T07:58:54.870Z,8.94
2017-03-02T07:59:55.661Z,9.04
2017-03-02T08:00:55.313Z,9.01
2017-03-02T08:01:54.982Z,9.05
2017-03-02T08:02:55.386Z,9.05
2017-03-02T08:03:55.804Z,9.09
2017-03-02T08:04:55.484Z,9.01
2017-03-02T08:05:55.502Z,9.02
2017-03-02T08:06:55.150Z,9.06
2017-03-02T08:07:55.188Z,9.06
2017-03-02T08:08:55.598Z,9.02
2017-03-02T08:09:55.250Z,9.18
2017-03-02T08:10:55.685Z,9.25
2017-03-02T08:11:55.712Z,9.18
2017-03-02T08:12:55.739Z,9.2
2017-03-02T08:13:55.389Z,9.23
2017-03-02T08:14:55.819Z,9.34
2017-03-02T08:15:55.867Z,9.42
2017-03-02T08:16:55.881Z,9.45
2017-03-02T08:17:55.556Z,9.53
2017-03-02T08:18:55.566Z,9.61
2017-03-02T08:19:55.613Z,9.63
2017-03-02T08:20:56.028Z,9.68
2017-03-02T08:21:56.082Z,9.73
2017-03-02T08:22:55.761Z,9.82
2017-03-02T08:23:55.754Z,10.04
2017-03-02T08:24:55.789Z,10.36
2017-03-02T08:25:56.222Z,11.01
2017-03-02T08:26:56.645Z,11.7
2017-03-02T08:27:55.899Z,12.67
2017-03-02T08:28:56.340Z,13.44
2017-03-02T08:29:56.395Z,14.21
2017-03-02T08:30:56.401Z,14.91
2017-03-02T08:31:56.465Z,15.6
2017-03-02T08:32:56.093Z,16.15
2017-03-02T08:33:56.521Z,16.58
2017-03-02T08:34:56.682Z,16.7
2017-03-02T08:35:56.611Z,16.49
2017-03-02T08:36:56.264Z,16.15
2017-03-02T08:37:56.676Z,15.85
2017-03-02T08:38:56.721Z,15.43
2017-03-02T08:39:56.763Z,14.95
2017-03-02T08:40:56.440Z,14.54
2017-03-02T08:41:56.839Z,14.17
2017-03-02T08:42:56.891Z,13.8
2017-03-02T08:43:57.322Z,13.49
2017-03-02T08:44:57.342Z,13.24
2017-03-02T08:45:56.610Z,13.12
2017-03-02T08:46:57.046Z,13.12
2017-03-02T08:47:57.071Z,12.85
2017-03-02T08:48:56.744Z,12.84
2017-03-02T08:49:56.777Z,12.66
2017-03-02T08:50:56.807Z,12.46
2017-03-02T08:51:56.841Z,12.45
2017-03-02T08:52:57.695Z,12.3
2017-03-02T08:53:57.314Z,12.2
2017-03-02T08:54:57.724Z,11.97
2017-03-02T08:55:57.003Z,11.93
2017-03-02T08:56:57.417Z,11.68
2017-03-02T08:57:57.455Z,11.53
2017-03-02T08:58:57.118Z,11.52
2017-03-02T08:59:57.554Z,11.32
2017-03-02T09:00:57.968Z,11.13
2017-03-02T09:01:57.625Z,10.78
2017-03-02T09:03:02.972Z,10.52
2017-03-02T09:03:57.679Z,10.24
2017-03-02T09:04:57.735Z,10.06
2017-03-02T09:05:57.772Z,9.83
2017-03-02T09:06:57.838Z,9.68
2017-03-02T09:07:57.439Z,9.64
2017-03-02T09:08:57.862Z,9.56
2017-03-02T09:09:58.283Z,9.61
2017-03-02T09:10:57.561Z,9.78
2017-03-02T09:11:58.002Z,9.76
2017-03-02T09:12:58.396Z,9.85
2017-03-02T09:13:57.688Z,9.81
2017-03-02T09:14:58.497Z,9.83
2017-03-02T09:15:58.150Z,9.78
2017-03-02T09:16:57.770Z,9.75
2017-03-02T09:17:58.205Z,9.61
2017-03-02T09:18:58.237Z,9.58
2017-03-02T09:19:57.899Z,9.6
2017-03-02T09:20:57.918Z,9.71
2017-03-02T09:21:58.336Z,10.04
2017-03-02T09:22:58.004Z,10.44
2017-03-02T09:23:58.035Z,10.92
2017-03-02T09:24:58.080Z,11.35
2017-03-02T09:25:58.120Z,11.65
2017-03-02T09:26:58.166Z,11.99
2017-03-02T09:27:58.582Z,12.19
2017-03-02T09:28:58.625Z,12.51
2017-03-02T09:29:58.268Z,12.89
2017-03-02T09:30:58.304Z,13.14
2017-03-02T09:31:58.732Z,13.22
2017-03-02T09:32:58.403Z,13.36
2017-03-02T09:33:58.453Z,13.46
2017-03-02T09:34:58.872Z,13.55
2017-03-02T09:35:58.913Z,13.69
2017-03-02T09:36:58.966Z,13.67
2017-03-02T09:37:58.620Z,13.79
2017-03-02T09:38:59.082Z,13.77
2017-03-02T09:39:59.471Z,13.89
2017-03-02T09:40:59.760Z,13.98
2017-03-02T09:41:59.576Z,14.04
2017-03-02T09:42:59.212Z,14.09
2017-03-02T09:43:58.882Z,14.16
2017-03-02T09:44:59.317Z,14.35
2017-03-02T09:45:58.985Z,14.46
2017-03-02T09:46:59.780Z,14.5
2017-03-02T09:47:59.063Z,14.65
2017-03-02T09:48:59.509Z,14.65
2017-03-02T09:49:59.157Z,14.65
2017-03-02T09:50:59.576Z,14.69
2017-03-02T09:51:59.625Z,14.67
2017-03-02T09:52:59.669Z,14.62
2017-03-02T09:53:59.716Z,14.72
2017-03-02T09:54:59.371Z,14.8
2017-03-02T09:56:00.202Z,14.81
2017-03-02T09:56:59.855Z,14.88
2017-03-02T09:57:59.907Z,14.93
2017-03-02T09:58:59.942Z,14.9
2017-03-02T10:00:00.012Z,14.74
2017-03-02T10:01:00.039Z,14.81
2017-03-02T10:02:00.094Z,14.64
2017-03-02T10:02:59.740Z,14.56
2017-03-02T10:04:00.174Z,14.52
2017-03-02T10:05:00.231Z,14.53
2017-03-02T10:05:59.889Z,14.53
2017-03-02T10:06:59.933Z,14.49
2017-03-02T10:07:59.988Z,14.56
2017-03-02T10:09:00.807Z,14.49
2017-03-02T10:10:00.067Z,14.56
2017-03-02T10:11:00.882Z,14.46
2017-03-02T10:12:00.546Z,14.43
2017-03-02T10:13:00.589Z,14.43
2017-03-02T10:14:00.257Z,14.29
2017-03-02T10:15:00.698Z,14.17
2017-03-02T10:16:00.346Z,14.17
2017-03-02T10:17:01.162Z,14.09
2017-03-02T10:18:00.824Z,14.04
2017-03-02T10:19:00.867Z,14.07
2017-03-02T10:20:00.540Z,14.09
2017-03-02T10:21:00.578Z,14.12
2017-03-02T10:22:00.638Z,14.07
2017-03-02T10:23:01.069Z,13.77
2017-03-02T10:24:01.104Z,13.61
2017-03-02T10:25:01.539Z,13.38
2017-03-02T10:26:01.210Z,13.29
2017-03-02T10:27:00.848Z,13.09
2017-03-02T10:28:01.284Z,13.24
2017-03-02T10:29:01.723Z,13.17
2017-03-02T10:30:01.423Z,13.09
2017-03-02T10:31:01.416Z,13.22
2017-03-02T10:32:01.072Z,13.33
2017-03-02T10:33:01.117Z,13.51
2017-03-02T10:34:01.947Z,13.61
2017-03-02T10:35:01.597Z,13.58
2017-03-02T10:36:01.666Z,13.73
2017-03-02T10:37:02.092Z,13.69
2017-03-02T10:38:01.738Z,13.71
2017-03-02T10:39:01.401Z,13.63
2017-03-02T10:40:01.448Z,13.67
2017-03-02T10:41:01.884Z,13.71
2017-03-02T10:42:01.936Z,13.79
2017-03-02T10:43:01.957Z,13.83
2017-03-02T10:44:02.011Z,13.81
2017-03-02T10:45:02.047Z,13.63
2017-03-02T10:46:02.090Z,13.58
2017-03-02T10:47:02.145Z,13.54
2017-03-02T10:48:01.807Z,13.51
2017-03-02T10:49:01.833Z,13.29
2017-03-02T10:50:02.651Z,13.21
2017-03-02T10:51:02.324Z,13.21
2017-03-02T10:52:02.013Z,13.24
2017-03-02T10:53:02.433Z,13.03
2017-03-02T10:54:02.052Z,12.97
2017-03-02T10:55:02.098Z,12.79
2017-03-02T10:56:02.754Z,12.69
2017-03-02T10:57:03.019Z,12.63
2017-03-02T10:58:02.632Z,12.64
2017-03-02T10:59:03.030Z,12.67
2017-03-02T11:00:02.735Z,12.62
2017-03-02T11:01:03.130Z,12.69
2017-03-02T11:02:02.385Z,12.54
2017-03-02T11:03:02.513Z,12.6
2017-03-02T11:04:02.871Z,12.49
2017-03-02T11:05:02.881Z,12.42
2017-03-02T11:06:03.304Z,12.3
2017-03-02T11:07:02.951Z,12.15
2017-03-02T11:08:03.014Z,12.05
2017-03-02T11:09:02.648Z,11.86
2017-03-02T11:10:03.073Z,11.71
2017-03-02T11:11:02.725Z,11.53
2017-03-02T11:12:03.191Z,11.32
2017-03-02T11:13:02.828Z,11.11
2017-03-02T11:14:02.840Z,10.95
2017-03-02T11:15:03.268Z,10.73
2017-03-02T11:16:03.303Z,10.4
2017-03-02T11:17:03.350Z,10.18
2017-03-02T11:18:03.763Z,10.14
2017-03-02T11:19:03.035Z,10.1
2017-03-02T11:20:03.072Z,10.1
2017-03-02T11:21:03.903Z,10.14
2017-03-02T11:22:03.535Z,10.22
2017-03-02T11:23:03.214Z,10.34
2017-03-02T11:24:03.629Z,10.59
2017-03-02T11:25:03.681Z,10.58
2017-03-02T11:26:03.728Z,10.71
2017-03-02T11:27:04.139Z,10.78
2017-03-02T11:28:03.390Z,10.84
2017-03-02T11:29:03.442Z,10.89
2017-03-02T11:30:03.865Z,10.89
2017-03-02T11:31:04.423Z,10.91
2017-03-02T11:32:03.573Z,10.92
2017-03-02T11:33:04.390Z,10.98
2017-03-02T11:34:03.647Z,10.92
2017-03-02T11:35:03.693Z,11.02
2017-03-02T11:36:04.113Z,11.09
2017-03-02T11:37:03.768Z,11.07
2017-03-02T11:38:03.807Z,11.16
2017-03-02T11:39:04.231Z,11.29
2017-03-02T11:40:04.284Z,11.28
2017-03-02T11:41:04.695Z,11.35
2017-03-02T11:42:03.978Z,11.35
2017-03-02T11:43:04.400Z,11.36
2017-03-02T11:44:04.439Z,11.35
2017-03-02T11:45:04.481Z,11.32
2017-03-02T11:46:04.144Z,11.31
2017-03-02T11:47:04.189Z,11.32
2017-03-02T11:48:04.607Z,11.44
2017-03-02T11:49:04.260Z,11.38
2017-03-02T11:50:04.292Z,11.5
2017-03-02T11:51:04.347Z,11.68
2017-03-02T11:52:04.378Z,11.67
2017-03-02T11:53:05.201Z,11.83
2017-03-02T11:54:04.883Z,11.85
2017-03-02T11:55:04.509Z,11.93
2017-03-02T11:56:04.533Z,11.94
2017-03-02T11:57:04.965Z,11.87
2017-03-02T11:58:05.005Z,11.89
2017-03-02T11:59:05.044Z,11.87
2017-03-02T12:00:05.092Z,11.86
2017-03-02T12:01:05.137Z,11.77
2017-03-02T12:02:04.780Z,11.83
2017-03-02T12:03:05.214Z,11.83
2017-03-02T12:04:05.623Z,11.97
2017-03-02T12:05:04.916Z,11.97
2017-03-02T12:06:05.332Z,12.05
2017-03-02T12:07:05.361Z,12.11
2017-03-02T12:08:05.399Z,12.13
2017-03-02T12:09:05.838Z,12.12
2017-03-02T12:10:05.112Z,12.27
2017-03-02T12:11:05.515Z,12.37
2017-03-02T12:12:05.805Z,12.27
2017-03-02T12:13:05.615Z,12.41
2017-03-02T12:14:05.632Z,12.29
2017-03-02T12:15:05.285Z,12.3
2017-03-02T12:16:05.325Z,12.34
2017-03-02T12:17:05.770Z,12.23
2017-03-02T12:18:05.797Z,12.16
2017-03-02T12:19:05.489Z,12.01
2017-03-02T12:20:05.871Z,11.82
2017-03-02T12:21:05.934Z,11.67
2017-03-02T12:22:06.362Z,11.72
2017-03-02T12:23:05.989Z,11.61
2017-03-02T12:24:06.418Z,11.53
2017-03-02T12:25:06.070Z,11.53
2017-03-02T12:26:06.173Z,11.5
2017-03-02T12:27:06.145Z,11.34
2017-03-02T12:28:06.183Z,11.39
2017-03-02T12:29:06.232Z,11.31
2017-03-02T12:30:06.253Z,11.25
2017-03-02T12:31:06.300Z,11.13
2017-03-02T12:32:06.337Z,11.03
2017-03-02T12:33:06.024Z,10.99
2017-03-02T12:34:06.021Z,10.92
2017-03-02T12:35:06.203Z,10.94
2017-03-02T12:36:06.101Z,10.98
2017-03-02T12:37:06.519Z,10.86
2017-03-02T12:38:06.960Z,10.86
2017-03-02T12:39:07.091Z,10.83
2017-03-02T12:40:06.640Z,10.63
2017-03-02T12:41:06.676Z,10.66
2017-03-02T12:42:06.718Z,10.76
2017-03-02T12:43:07.145Z,10.66
2017-03-02T12:44:06.781Z,10.76
2017-03-02T12:45:06.818Z,10.63
2017-03-02T12:46:06.469Z,10.68
2017-03-02T12:47:06.512Z,10.52
2017-03-02T12:48:06.956Z,10.56
2017-03-02T12:49:06.582Z,10.65
2017-03-02T12:50:06.634Z,10.51
2017-03-02T12:51:07.071Z,10.52
2017-03-02T12:52:07.084Z,10.56
2017-03-02T12:53:07.510Z,10.56
2017-03-02T12:54:07.149Z,10.47
2017-03-02T12:55:07.591Z,10.43
2017-03-02T12:56:07.615Z,10.43
2017-03-02T12:57:07.281Z,10.44
2017-03-02T12:58:07.319Z,10.51
2017-03-02T12:59:07.341Z,10.44
2017-03-02T13:00:06.996Z,10.42
2017-03-02T13:01:07.803Z,10.46
2017-03-02T13:02:07.460Z,10.44
2017-03-02T13:03:07.495Z,10.4
2017-03-02T13:04:07.929Z,10.47
2017-03-02T13:05:07.564Z,10.42
2017-03-02T13:06:07.593Z,10.52
2017-03-02T13:07:07.244Z,10.42
2017-03-02T13:08:07.292Z,10.44
2017-03-02T13:09:08.094Z,10.36
2017-03-02T13:10:07.375Z,10.4
2017-03-02T13:11:07.394Z,10.28